Time;durP1;ratioP1;P1;durP2;ratioP2;P2;SDS_P1;SDS_P2;PMS_P1;PMS_P2;Temp;Humidity;BMP_temperature;BMP_pressure;BME280_temperature;BME280_humidity;BME280_pressure;Samples;Min_cycle;Max_cycle;Signal;HPM_P1;HPM_P2
2023/04/10 00:01:15;;;;;;;5.13;3.20;;;;;;;6.41;66.02;99217.13;4994479;28;20050;-93
2023/04/10 00:04:14;;;;;;;5.43;2.72;;;;;;;6.02;66.93;99159.13;4985503;28;20562;-95
2023/04/10 00:07:04;;;;;;;4.95;2.92;;;;;;;6.26;67.21;99195.16;4977597;28;20061;-93
2023/04/10 00:09:48;;;;;;;6.07;3.20;;;;;;;6.24;66.81;99185.47;4973204;28;20050;-94
2023/04/10 00:12:47;;;;;;;4.70;2.88;;;;;;;5.82;70.91;99175.00;4969432;28;20051;-93
2023/04/10 00:18:48;;;;;;;5.75;3.05;;;;;;;5.22;73.62;99169.72;4830692;29;20426;-92
2023/04/10 00:21:47;;;;;;;3.85;2.70;;;;;;;5.15;75.30;99168.84;4816124;29;20054;-92
2023/04/10 00:24:27;;;;;;;5.32;3.38;;;;;;;5.15;74.92;99160.94;4844470;29;20049;-91
2023/04/10 00:28:16;;;;;;;5.80;3.00;;;;;;;5.48;74.84;99206.66;4870118;29;20045;-93
2023/04/10 00:30:44;;;;;;;7.17;3.40;;;;;;;5.11;75.07;99159.16;4872718;29;20041;-93
2023/04/10 00:37:16;;;;;;;4.10;2.80;;;;;;;5.35;73.51;99150.38;4812008;29;20046;-91
2023/04/10 00:39:48;;;;;;;5.78;2.80;;;;;;;5.63;71.11;99149.50;4797043;29;20471;-93
2023/04/10 00:42:22;;;;;;;7.22;3.35;;;;;;;5.61;71.16;99127.53;4793585;29;20146;-92
2023/04/10 00:48:50;;;;;;;7.55;3.33;;;;;;;5.45;73.24;99134.56;4826718;29;20133;-93
2023/04/10 00:51:48;;;;;;;9.23;3.60;;;;;;;5.65;73.51;99185.56;4827350;29;20545;-92
2023/04/10 00:54:46;;;;;;;9.63;4.63;;;;;;;5.50;74.88;99183.78;4890913;29;20044;-92
2023/04/10 00:57:45;;;;;;;16.17;6.25;;;;;;;5.07;75.76;99132.81;4944770;29;20051;-92
2023/04/10 01:08:35;;;;;;;6.63;3.47;;;;;;;4.32;81.35;99139.66;4846051;29;20101;-93
2023/04/10 01:11:47;;;;;;;6.63;3.63;;;;;;;4.25;82.71;99161.56;4848992;29;20061;-92
2023/04/10 01:19:04;;;;;;;8.43;4.43;;;;;;;3.71;85.85;99149.88;4705128;30;20132;-93
2023/04/10 01:29:38;;;;;;;9.88;4.97;;;;;;;3.57;90.22;99190.97;4734256;30;20476;-94
2023/04/10 01:32:06;;;;;;;14.80;6.15;;;;;;;3.30;89.48;99160.97;4709055;30;20567;-95
2023/04/10 01:34:32;;;;;;;11.18;5.60;;;;;;;3.42;88.20;99162.78;4712269;30;20282;-94
2023/04/10 01:37:22;;;;;;;8.55;5.03;;;;;;;3.46;87.63;99165.44;4692007;30;20049;-93
2023/04/10 01:40:39;;;;;;;6.60;4.05;;;;;;;3.67;86.79;99187.53;4708657;30;20036;-94
2023/04/10 01:43:58;;;;;;;8.07;4.88;;;;;;;3.53;86.51;99157.63;4737143;30;20103;-94
2023/04/10 01:47:18;;;;;;;6.90;4.22;;;;;;;3.58;87.60;99190.97;4725449;30;20060;-94
2023/04/10 01:50:23;;;;;;;14.73;6.30;;;;;;;3.07;87.27;99127.47;4757975;29;20056;-92
2023/04/10 02:01:08;;;;;;;;;;;;;;;;;;;;;
2023/04/10 02:04:33;;;;;;;6.85;3.95;;;;;;;3.24;93.20;99174.03;4778114;29;20040;-92
2023/04/10 02:10:47;;;;;;;5.85;3.78;;;;;;;4.42;87.86;99131.78;4738416;30;20047;-93
2023/04/10 02:13:44;;;;;;;7.22;3.65;;;;;;;4.62;88.08;99145.91;4715369;30;20055;-94
2023/04/10 02:16:31;;;;;;;4.78;3.28;;;;;;;4.65;86.74;99102.88;4734179;30;20048;-93
2023/04/10 02:20:19;;;;;;;7.18;3.50;;;;;;;4.80;85.11;99124.00;4811375;29;20615;-92
2023/04/10 02:23:42;;;;;;;;;;;;;;;;;;;;;
2023/04/10 02:30:11;;;;;;;5.53;3.40;;;;;;;5.05;82.84;99109.09;4876429;29;20397;-93
2023/04/10 02:33:14;;;;;;;7.20;4.53;;;;;;;4.57;80.65;99120.41;4883529;29;20513;-91
2023/04/10 02:36:01;;;;;;;7.22;4.35;;;;;;;4.17;82.21;99128.19;4881067;29;20045;-93
2023/04/10 02:38:53;;;;;;;8.10;4.80;;;;;;;4.06;84.59;99167.63;4894571;29;20346;-92
2023/04/10 02:49:26;;;;;;;7.38;4.22;;;;;;;3.09;89.32;99115.22;4860925;29;20154;-92
2023/04/10 02:53:01;;;;;;;9.77;5.15;;;;;;;3.23;91.26;99169.63;4931663;29;20067;-93
2023/04/10 02:59:54;;;;;;;9.45;5.82;;;;;;;3.09;92.76;99170.41;4885692;29;20048;-93
2023/04/10 03:07:21;;;;;;;15.18;6.70;;;;;;;3.19;94.39;99170.47;4846312;29;20003;-91
2023/04/10 03:14:39;;;;;;;20.65;7.90;;;;;;;2.95;96.83;99122.13;4779392;30;20047;-92
2023/04/10 03:17:38;;;;;;;14.93;6.00;;;;;;;3.43;94.30;99173.34;4738269;30;20432;-92
2023/04/10 03:23:53;;;;;;;17.52;7.05;;;;;;;3.37;95.89;99148.75;4702514;30;20055;-92
2023/04/10 04:16:50;;;;;;;;;;;;;;;;;;;;;
2023/04/10 04:24:56;;;;;;;29.77;9.38;;;;;;;3.33;97.32;99197.78;6049868;23;20023;-93
2023/04/10 04:31:31;;;;;;;45.33;17.42;;;;;;;3.38;97.80;99164.50;5853352;24;20090;-94
2023/04/10 04:38:21;;;;;;;7.90;4.22;;;;;;;3.73;94.93;99182.31;5752108;24;20083;-93
2023/04/10 04:41:43;;;;;;;13.48;5.10;;;;;;;3.90;94.30;99200.84;5725532;25;20082;-92
2023/04/10 05:25:46;;;;;;;11.07;5.88;;;;;;;3.40;96.87;99219.72;5870027;24;20131;-91
2023/04/10 05:27:47;;;;;;;10.93;5.38;;;;;;;3.79;96.51;99242.84;5894105;24;20040;-92
2023/04/10 05:37:40;;;;;;;9.38;5.45;;;;;;;4.83;90.31;99239.03;5759864;24;20031;-94
2023/04/10 05:51:18;;;;;;;8.93;5.20;;;;;;;5.73;88.51;99240.97;5717489;24;20071;-92
2023/04/10 05:54:57;;;;;;;;;;;;;;;;;;;;;
2023/04/10 05:58:14;;;;;;;9.13;5.13;;;;;;;6.41;82.70;99228.56;5859645;24;20516;-91
2023/04/10 06:01:49;;;;;;;9.43;4.95;;;;;;;6.78;81.29;99242.53;5771977;24;20359;-93
2023/04/10 06:08:48;;;;;;;;;;;;;;;;;;;;;
2023/04/10 06:11:48;;;;;;;10.60;5.30;;;;;;;7.27;76.32;99219.38;5792264;24;20031;-94
2023/04/10 06:36:55;;;;;;;13.88;6.30;;;;;;;8.36;67.95;99198.09;5408236;22;18931899;-94
2023/04/10 06:40:21;;;;;;;12.43;6.95;;;;;;;8.59;68.58;99236.75;6128966;23;20071;-93
2023/04/10 06:48:01;;;;;;;;;;;;;;;;;;;;;
2023/04/10 07:18:47;;;;;;;12.73;6.68;;;;;;;10.53;60.22;99210.72;5880762;22;9676665;-94
2023/04/10 07:21:49;;;;;;;;;;;;;;;;;;;;;
2023/04/10 07:24:38;;;;;;;11.77;6.60;;;;;;;10.39;59.73;99207.47;6236480;22;20491;-92
2023/04/10 07:27:51;;;;;;;17.75;8.02;;;;;;;11.24;58.58;99217.22;6197263;23;20021;-93
2023/04/10 07:30:31;;;;;;;;;;;;;;;;;;;;;
2023/04/10 07:33:27;;;;;;;11.77;6.22;;;;;;;10.71;60.50;99180.22;6289229;22;20069;-91
2023/04/10 07:36:25;;;;;;;12.32;6.32;;;;;;;11.00;57.44;99222.16;6290438;22;20479;-93
2023/04/10 07:39:32;;;;;;;10.35;5.65;;;;;;;10.99;58.03;99211.56;6171852;23;20064;-92
2023/04/10 07:42:02;;;;;;;11.25;6.10;;;;;;;10.83;59.75;99201.25;6072096;23;20019;-92
2023/04/10 07:44:31;;;;;;;11.07;6.18;;;;;;;10.73;59.78;99204.13;6084406;23;20018;-93
2023/04/10 07:47:53;;;;;;;12.80;6.75;;;;;;;10.44;57.81;99179.00;6085967;23;20477;-95
2023/04/10 07:50:39;;;;;;;39.90;22.30;;;;;;;10.39;58.78;99178.22;6077013;23;20413;-92
2023/04/10 07:53:20;;;;;;;13.93;7.00;;;;;;;10.47;59.04;99237.44;6085273;23;20049;-92
2023/04/10 07:58:49;;;;;;;19.10;8.07;;;;;;;10.62;59.89;99188.38;5909647;24;20026;-94
2023/04/10 08:01:34;;;;;;;11.43;6.03;;;;;;;11.02;56.58;99188.41;5888408;24;20125;-93
2023/04/10 08:04:11;;;;;;;10.13;5.55;;;;;;;11.08;56.14;99190.94;5887821;24;20022;-93
2023/04/10 08:09:53;;;;;;;10.68;5.90;;;;;;;11.36;54.48;99187.63;6008613;23;20030;-92
2023/04/10 08:12:34;;;;;;;7.82;4.70;;;;;;;11.20;50.82;99221.72;6077069;23;20018;-93
2023/04/10 08:15:27;;;;;;;9.13;5.18;;;;;;;10.58;54.54;99213.28;6077264;23;20392;-93
2023/04/10 08:29:06;;;;;;;8.07;4.18;;;;;;;10.89;53.14;99229.50;5905475;23;20083;-91
2023/04/10 08:53:56;;;;;;;9.85;4.93;;;;;;;11.77;50.04;99220.38;5985506;23;20035;-94
2023/04/10 08:57:19;;;;;;;8.48;4.85;;;;;;;11.47;50.23;99237.97;6111696;23;20042;-94
2023/04/10 09:03:03;;;;;;;9.38;5.30;;;;;;;11.15;50.48;99214.78;6138542;23;20021;-93
2023/04/10 09:05:40;;;;;;;9.20;5.38;;;;;;;11.18;51.38;99220.88;6168927;22;20073;-93
2023/04/10 09:08:19;;;;;;;8.23;5.30;;;;;;;10.98;50.02;99229.31;6255863;22;20445;-93
2023/04/10 09:14:38;;;;;;;10.43;5.80;;;;;;;11.72;48.96;99199.19;6190401;23;20021;-94
2023/04/10 09:18:07;;;;;;;9.80;5.78;;;;;;;12.62;47.64;99245.78;6190328;23;20028;-94
2023/04/10 09:36:45;;;;;;;9.60;5.28;;;;;;;12.46;48.43;99202.63;5937352;23;20028;-94
2023/04/10 09:40:03;;;;;;;9.50;5.80;;;;;;;12.18;48.05;99249.63;5936756;24;20039;-93
2023/04/10 09:50:44;;;;;;;;;;;;;;;;;;;;;
2023/04/10 10:50:34;;;;;;;;;;;;;;;;;;;;;
2023/04/10 10:54:57;;;;;;;;;;;;;;;;;;;;;
2023/04/10 10:59:01;;;;;;;;;;;;;;;;;;;;;
2023/04/10 11:02:22;;;;;;;14.30;7.28;;;;;;;12.12;48.16;99200.88;6191981;23;20028;-92
2023/04/10 11:13:25;;;;;;;;;;;;;;;;;;;;;
2023/04/10 11:29:17;;;;;;;9.50;5.97;;;;;;;13.81;42.48;99196.78;5797624;24;20084;-92
2023/04/10 11:40:57;;;;;;;;;;;;;;;;;;;;;
2023/04/10 11:46:50;;;;;;;17.70;9.90;;;;;;;13.96;44.47;99146.31;5818665;24;20090;-93
2023/04/10 11:49:16;;;;;;;9.30;5.60;;;;;;;14.41;43.34;99142.06;5836153;24;20022;-95
2023/04/10 12:15:09;;;;;;;;;;;;;;;;;;;;;
2023/04/10 12:25:28;;;;;;;12.98;7.18;;;;;;;13.85;43.70;99161.88;5826159;24;20506;-93
2023/04/10 12:32:23;;;;;;;7.80;5.10;;;;;;;14.73;39.37;99158.78;6127888;23;20522;-93
2023/04/10 12:35:17;;;;;;;8.85;5.18;;;;;;;14.64;39.74;99111.81;5963577;24;20024;-91
2023/04/10 12:38:13;;;;;;;7.53;5.13;;;;;;;13.87;40.78;99108.34;5963359;24;20142;-91
2023/04/10 12:56:24;;;;;;;10.52;7.43;;;;;;;14.42;41.05;99156.31;5909299;24;20013;-94
2023/04/10 12:59:50;;;;;;;10.98;7.15;;;;;;;14.30;40.73;99149.63;5905317;24;20021;-93
2023/04/10 13:02:54;;;;;;;9.38;5.65;;;;;;;14.46;41.32;99147.25;5934740;24;20025;-94
2023/04/10 13:05:53;;;;;;;10.77;6.40;;;;;;;13.73;40.97;99101.69;5892051;24;20065;-94
2023/04/10 13:08:21;;;;;;;11.55;5.70;;;;;;;13.92;40.67;99125.09;5871226;24;20036;-94
2023/04/10 13:11:02;;;;;;;17.83;12.75;;;;;;;13.95;40.80;99143.72;5899233;24;20033;-93
2023/04/10 13:13:39;;;;;;;14.48;10.63;;;;;;;13.86;42.19;99152.94;5893686;24;20025;-92
2023/04/10 13:16:23;;;;;;;13.38;7.97;;;;;;;13.81;41.78;99092.53;5914698;23;20333;-94
2023/04/10 13:18:56;;;;;;;13.73;8.07;;;;;;;14.26;41.69;99107.84;6024051;23;20027;-94
2023/04/10 13:21:44;;;;;;;7.95;5.28;;;;;;;14.68;39.79;99134.88;6102456;23;20053;-93
2023/04/10 13:24:42;;;;;;;15.32;10.38;;;;;;;14.69;40.23;99095.56;6193337;23;20407;-94
2023/04/10 13:27:11;;;;;;;;;;;;;;;14.87;39.86;99121.63;6168872;23;20020;-94
2023/04/10 13:30:22;;;;;;;9.35;6.43;;;;;;;14.55;38.91;99107.69;6200016;23;19919;-92
2023/04/10 13:33:10;;;;;;;12.13;7.43;;;;;;;14.63;37.42;99102.03;6216599;23;20027;-91
2023/04/10 13:35:52;;;;;;;7.72;5.20;;;;;;;14.59;37.17;99062.94;6226812;23;20438;-92
2023/04/10 13:38:24;;;;;;;6.82;4.57;;;;;;;14.95;37.19;99090.06;6225487;23;20031;-94
2023/04/10 13:40:52;;;;;;;8.85;5.82;;;;;;;15.00;38.47;99063.09;6225403;23;20426;-95
2023/04/10 13:43:20;;;;;;;7.60;4.40;;;;;;;15.04;37.68;99082.59;6251169;23;20063;-95
2023/04/10 13:46:36;;;;;;;6.70;4.68;;;;;;;15.11;38.28;99076.06;6295270;22;20026;-94
2023/04/10 13:49:16;;;;;;;8.27;5.35;;;;;;;15.12;39.42;99069.78;6254985;22;20019;-94
2023/04/10 13:52:09;;;;;;;10.02;5.90;;;;;;;15.23;39.51;99062.16;6314839;22;20116;-94
2023/04/10 13:55:05;;;;;;;8.30;5.22;;;;;;;14.86;39.79;99062.78;6317922;22;20019;-94
2023/04/10 13:58:12;;;;;;;7.10;4.60;;;;;;;15.32;38.71;99085.91;6316109;22;20015;-95
2023/04/10 14:00:38;;;;;;;8.00;5.72;;;;;;;15.38;38.77;99088.31;6260687;22;20019;-93
2023/04/10 14:03:35;;;;;;;8.90;4.97;;;;;;;15.02;38.05;99041.63;6314957;22;20506;-93
2023/04/10 14:06:28;;;;;;;7.80;4.82;;;;;;;15.44;38.51;99076.50;6297849;22;20102;-92
2023/04/10 14:09:29;;;;;;;;;;;;;;;;;;;;;
2023/04/10 14:12:33;;;;;;;;;;;;;;;;;;;;;
2023/04/10 14:15:57;;;;;;;7.93;5.03;;;;;;;15.11;37.37;99030.53;6320133;22;20039;-93
2023/04/10 14:23:21;;;;;;;6.50;4.80;;;;;;;15.09;38.62;99070.75;6071552;23;20048;-93
2023/04/10 14:34:08;;;;;;;9.88;5.82;;;;;;;14.68;40.36;99030.47;5939291;24;20036;-95
2023/04/10 14:40:30;;;;;;;12.60;8.00;;;;;;;15.27;38.93;99069.16;5906772;24;20365;-93
2023/04/10 14:48:09;;;;;;;;;;;;;;;;;;;;;
2023/04/10 14:49:45;;;;;;;9.85;6.15;;;;;;;15.05;40.05;99044.16;5902788;24;20079;-94
2023/04/10 14:52:17;;;;;;;10.60;5.97;;;;;;;15.05;39.46;99034.34;5940647;24;20017;-93
2023/04/10 14:55:03;;;;;;;8.15;4.78;;;;;;;14.86;40.14;99049.41;5942866;23;20023;-92
2023/04/10 15:01:37;;;;;;;10.55;6.32;;;;;;;15.33;39.48;99066.22;5947210;24;20064;-94
2023/04/10 15:04:11;;;;;;;12.15;6.43;;;;;;;15.38;39.12;99041.91;5894103;24;20024;-92
2023/04/10 15:06:37;;;;;;;8.85;5.20;;;;;;;15.45;38.81;99062.13;5909705;24;20036;-93
2023/04/10 15:09:04;;;;;;;8.35;5.20;;;;;;;15.31;39.30;99054.69;5932043;24;20558;-95
2023/04/10 15:11:36;;;;;;;7.85;5.30;;;;;;;15.09;39.21;99021.69;5953743;24;20024;-92
2023/04/10 15:14:22;;;;;;;12.45;7.40;;;;;;;15.24;38.63;99030.88;5963442;24;20068;-94
2023/04/10 15:16:53;;;;;;;9.63;5.55;;;;;;;15.05;39.48;99060.22;6023076;23;20054;-93
2023/04/10 15:35:54;;;;;;;11.18;7.03;;;;;;;14.27;41.09;99090.88;5936480;24;20028;-93
2023/04/10 15:42:28;;;;;;;11.98;7.13;;;;;;;14.71;40.74;99064.28;5826081;24;20026;-94
2023/04/10 15:49:28;;;;;;;;;;;;;;;;;;;;;
2023/04/10 15:52:38;;;;;;;;;;;;;;;;;;;;;
2023/04/10 16:02:17;;;;;;;8.60;5.75;;;;;;;14.46;40.45;99064.31;5853155;24;20033;-93
2023/04/10 16:04:47;;;;;;;9.70;5.65;;;;;;;14.29;41.04;99048.88;5845396;24;20429;-93
2023/04/10 16:07:23;;;;;;;9.70;6.13;;;;;;;14.38;40.32;99057.44;6247984;22;20015;-93
2023/04/10 16:09:57;;;;;;;14.60;8.40;;;;;;;14.32;40.07;99063.03;6290864;22;20436;-95
2023/04/10 16:13:27;;;;;;;9.90;5.97;;;;;;;14.32;40.09;99054.13;6317710;22;20015;-94
2023/04/10 16:16:38;;;;;;;9.95;6.10;;;;;;;14.30;39.72;99042.63;6315343;22;20031;-94
2023/04/10 16:23:51;;;;;;;13.48;6.10;;;;;;;14.44;39.87;99040.28;6222991;23;20027;-93
2023/04/10 16:35:21;;;;;;;10.27;6.28;;;;;;;14.36;40.20;99093.22;6287308;22;20003;-93
2023/04/10 16:38:28;;;;;;;12.60;7.32;;;;;;;14.06;40.56;99047.09;6269918;22;20012;-94
2023/04/10 16:41:31;;;;;;;33.63;13.60;;;;;;;14.06;39.99;99052.44;6277526;22;20050;-92
2023/04/10 16:55:37;;;;;;;11.00;6.25;;;;;;;15.50;37.80;99059.25;5905057;24;20053;-94
2023/04/10 17:10:51;;;;;;;20.17;8.82;;;;;;;13.67;40.60;99088.53;5884692;24;20049;-92
2023/04/10 17:14:44;;;;;;;;;;;;;;;;;;;;;
2023/04/10 17:35:24;;;;;;;14.80;7.82;;;;;;;11.00;44.46;99051.88;5823862;24;20023;-93
2023/04/10 17:38:50;;;;;;;20.52;9.68;;;;;;;10.97;44.15;99048.38;5743755;24;20031;-94
2023/04/10 17:45:45;;;;;;;39.03;14.18;;;;;;;10.94;45.22;99099.91;5755693;24;20059;-93
2023/04/10 17:51:41;;;;;;;48.78;18.17;;;;;;;10.68;45.85;99077.41;5747695;24;20471;-94
2023/04/10 17:54:40;;;;;;;38.63;15.15;;;;;;;10.69;45.99;99110.22;5719502;25;20045;-91
2023/04/10 18:04:51;;;;;;;14.10;7.88;;;;;;;10.37;46.40;99116.25;5951275;24;20024;-95
2023/04/10 18:07:29;;;;;;;11.93;7.40;;;;;;;10.35;47.53;99137.53;5967522;23;20028;-95
2023/04/10 18:10:02;;;;;;;12.25;8.27;;;;;;;10.06;47.70;99099.09;5993376;23;20078;-94
2023/04/10 18:12:35;;;;;;;13.25;7.28;;;;;;;9.93;48.13;99096.69;6017875;23;20023;-91
2023/04/10 18:15:05;;;;;;;17.20;8.60;;;;;;;9.82;48.58;99102.19;6034227;23;20022;-91
2023/04/10 18:17:31;;;;;;;14.93;7.07;;;;;;;10.00;48.17;99140.84;6064044;23;20023;-93
2023/04/10 18:19:57;;;;;;;15.07;7.63;;;;;;;9.93;48.77;99148.06;6059050;23;20027;-93
2023/04/10 18:22:23;;;;;;;20.58;12.50;;;;;;;9.52;51.90;99122.22;6046554;23;20025;-93
2023/04/10 18:24:49;;;;;;;19.15;8.40;;;;;;;9.10;51.74;99112.28;6063052;23;20063;-94
2023/04/10 18:27:16;;;;;;;43.60;15.45;;;;;;;9.01;53.29;99107.13;6076351;23;20047;-92
2023/04/10 18:29:42;;;;;;;12.90;6.35;;;;;;;8.79;54.54;99112.75;6161464;23;20096;-92
2023/04/10 18:32:08;;;;;;;12.75;7.85;;;;;;;8.88;52.43;99142.69;6250723;22;20015;-92
2023/04/10 18:34:34;;;;;;;41.35;28.08;;;;;;;8.92;51.54;99133.78;6282014;22;20053;-92
2023/04/10 18:37:00;;;;;;;22.10;12.77;;;;;;;9.17;50.15;99140.50;6282844;22;20172;-93
2023/04/10 18:39:26;;;;;;;13.43;8.65;;;;;;;9.27;50.57;99145.66;6284440;22;20026;-93
2023/04/10 18:41:56;;;;;;;10.13;6.22;;;;;;;9.21;49.99;99136.88;6284029;22;20015;-93
2023/04/10 18:44:24;;;;;;;14.02;7.97;;;;;;;9.40;49.23;99161.34;6284280;22;20019;-94
2023/04/10 18:46:49;;;;;;;10.82;6.28;;;;;;;9.41;48.75;99163.09;6285139;22;20019;-91
2023/04/10 18:49:15;;;;;;;14.35;8.63;;;;;;;9.31;49.45;99161.50;6282925;22;20110;-92
2023/04/10 18:51:41;;;;;;;12.25;7.10;;;;;;;8.97;51.12;99134.59;6283530;22;20024;-93
2023/04/10 18:54:07;;;;;;;10.65;6.60;;;;;;;9.00;51.66;99166.38;6283767;22;20127;-91
2023/04/10 18:56:34;;;;;;;11.80;6.78;;;;;;;8.84;52.01;99171.03;6283562;22;20086;-92
2023/04/10 18:59:00;;;;;;;11.45;6.65;;;;;;;8.79;52.25;99179.03;6284379;22;20122;-91
2023/04/10 19:01:27;;;;;;;12.93;7.47;;;;;;;8.57;51.56;99128.09;6283548;22;20031;-95
2023/04/10 19:03:53;;;;;;;11.75;6.20;;;;;;;8.77;51.16;99153.44;6283869;22;20023;-93
2023/04/10 19:06:23;;;;;;;11.88;7.20;;;;;;;8.71;50.57;99138.47;6285247;22;20475;-93
2023/04/10 19:08:54;;;;;;;15.68;7.68;;;;;;;8.61;51.92;99148.34;6286244;22;20081;-93
2023/04/10 19:11:21;;;;;;;14.45;8.98;;;;;;;8.32;54.91;99134.53;6293381;22;20019;-92
2023/04/10 19:13:49;;;;;;;15.23;8.10;;;;;;;8.49;53.11;99182.94;6311271;22;20042;-92
2023/04/10 19:16:19;;;;;;;14.77;7.55;;;;;;;8.33;52.22;99142.50;6311289;22;20012;-93
2023/04/10 19:18:47;;;;;;;18.42;8.02;;;;;;;8.56;51.40;99171.38;6311529;22;20023;-93
2023/04/10 19:21:13;;;;;;;13.77;6.68;;;;;;;8.68;51.00;99177.44;6311706;22;20015;-93
2023/04/10 19:23:39;;;;;;;11.52;6.45;;;;;;;8.49;50.98;99135.25;6310712;22;20114;-93
2023/04/10 19:26:18;;;;;;;11.05;6.65;;;;;;;8.61;50.75;99144.84;6311308;22;20049;-94
2023/04/10 19:28:44;;;;;;;12.40;6.45;;;;;;;8.70;51.96;99179.16;6311575;22;20105;-92
2023/04/10 19:31:10;;;;;;;10.50;6.07;;;;;;;8.53;52.85;99170.56;6309187;22;20019;-93
2023/04/10 19:33:36;;;;;;;13.55;7.47;;;;;;;8.39;52.99;99181.28;6309917;22;20046;-94
2023/04/10 19:36:04;;;;;;;16.65;9.65;;;;;;;8.20;54.14;99170.91;6308263;22;20019;-92
2023/04/10 19:38:31;;;;;;;15.43;8.20;;;;;;;8.07;55.50;99182.53;6308739;22;20019;-92
2023/04/10 19:40:57;;;;;;;11.80;6.25;;;;;;;7.89;56.79;99191.50;6311450;22;20121;-92
2023/04/10 19:43:24;;;;;;;10.10;5.97;;;;;;;7.46;58.51;99157.50;6312082;22;20026;-92
2023/04/10 19:45:51;;;;;;;12.90;7.05;;;;;;;7.50;58.60;99188.31;6309847;22;20115;-92
2023/04/10 19:48:17;;;;;;;12.52;6.45;;;;;;;7.12;59.90;99155.09;6311214;22;20016;-93
2023/04/10 19:50:47;;;;;;;11.57;6.05;;;;;;;7.01;60.48;99143.72;6311010;22;20042;-93
2023/04/10 19:53:14;;;;;;;11.23;6.35;;;;;;;6.98;58.99;99163.13;6309915;22;20022;-94
2023/04/10 19:55:40;;;;;;;21.15;8.23;;;;;;;6.86;60.07;99157.03;6310307;22;20019;-93
2023/04/10 19:58:06;;;;;;;12.95;7.20;;;;;;;7.07;57.97;99180.72;6312918;22;20083;-96
2023/04/10 20:00:32;;;;;;;16.98;10.27;;;;;;;7.17;57.70;99182.38;6312200;22;20018;-94
2023/04/10 20:02:58;;;;;;;11.35;6.43;;;;;;;7.38;55.13;99159.31;6311139;22;20026;-92
2023/04/10 20:05:24;;;;;;;11.93;7.30;;;;;;;7.61;55.11;99180.28;6312060;22;20026;-93
2023/04/10 20:07:52;;;;;;;10.45;7.07;;;;;;;7.74;54.04;99195.19;6312761;22;20018;-93
2023/04/10 20:10:20;;;;;;;12.90;6.45;;;;;;;7.89;54.88;99209.16;6310706;22;20023;-93
2023/04/10 20:12:46;;;;;;;11.90;5.90;;;;;;;7.67;54.36;99163.47;6287378;22;20019;-92
2023/04/10 20:15:25;;;;;;;9.60;5.90;;;;;;;7.76;56.26;99214.59;6284422;22;20027;-91
2023/04/10 20:17:51;;;;;;;10.32;5.95;;;;;;;7.66;54.32;99178.50;6284575;22;20031;-92
2023/04/10 20:20:21;;;;;;;10.50;6.22;;;;;;;7.68;53.80;99182.00;6283319;22;20019;-92
2023/04/10 20:22:47;;;;;;;10.52;6.47;;;;;;;7.60;55.49;99168.81;6284874;22;20026;-94
2023/04/10 20:25:13;;;;;;;11.68;6.28;;;;;;;7.55;56.16;99202.41;6284946;22;20017;-93
2023/04/10 20:27:41;;;;;;;11.43;6.10;;;;;;;7.48;54.51;99161.00;6285665;22;20033;-93
2023/04/10 20:30:08;;;;;;;12.23;6.60;;;;;;;7.42;56.95;99182.22;6286064;22;20025;-93
2023/04/10 20:32:36;;;;;;;9.98;5.45;;;;;;;7.35;57.21;99196.38;6287158;22;20019;-92
2023/04/10 20:35:02;;;;;;;12.48;6.50;;;;;;;6.90;59.21;99161.44;6286477;22;20081;-93
2023/04/10 20:37:28;;;;;;;37.63;12.38;;;;;;;6.68;59.10;99158.00;6286342;22;20016;-93
2023/04/10 20:39:54;;;;;;;11.43;5.88;;;;;;;6.79;62.15;99202.00;6287383;22;20141;-94
2023/04/10 20:42:21;;;;;;;9.07;5.40;;;;;;;6.45;61.99;99171.34;6286865;22;20030;-95
2023/04/10 20:44:49;;;;;;;11.35;5.90;;;;;;;6.52;60.95;99175.69;6286453;22;20115;-94
2023/04/10 20:47:15;;;;;;;11.15;5.60;;;;;;;6.51;60.95;99179.25;6286173;22;20015;-92
2023/04/10 20:49:41;;;;;;;25.95;9.85;;;;;;;6.55;61.68;99203.00;6286138;22;20210;-94
2023/04/10 20:52:07;;;;;;;12.90;6.30;;;;;;;6.44;62.05;99188.97;6286708;22;20019;-94
2023/04/10 20:54:33;;;;;;;38.78;14.57;;;;;;;6.46;62.37;99202.13;6285430;22;20006;-94
2023/04/10 20:57:00;;;;;;;17.27;8.38;;;;;;;6.45;62.27;99217.13;6285779;22;20015;-94
2023/04/10 20:59:26;;;;;;;15.57;7.50;;;;;;;6.34;62.79;99224.19;6285340;22;20076;-94
2023/04/10 21:01:54;;;;;;;14.50;6.28;;;;;;;6.09;64.00;99202.25;6283177;22;20437;-93
2023/04/10 21:04:20;;;;;;;12.82;6.05;;;;;;;5.87;63.73;99174.97;6286499;22;20023;-94
2023/04/10 21:06:46;;;;;;;16.48;7.32;;;;;;;5.72;64.41;99170.59;6286085;22;20034;-93
2023/04/10 21:09:12;;;;;;;11.15;6.30;;;;;;;5.61;65.10;99156.53;6286850;22;20019;-94
2023/04/10 21:11:38;;;;;;;13.38;6.40;;;;;;;5.64;65.54;99170.63;6297882;22;20493;-93
2023/04/10 21:14:04;;;;;;;13.00;6.78;;;;;;;5.43;66.28;99157.44;6311769;22;20011;-92
2023/04/10 21:16:30;;;;;;;10.13;5.70;;;;;;;5.45;66.07;99175.00;6310925;22;20024;-93
2023/04/10 21:18:57;;;;;;;13.30;7.03;;;;;;;5.33;66.39;99157.44;6311697;22;20019;-93
2023/04/10 21:21:23;;;;;;;12.48;6.38;;;;;;;5.29;66.08;99154.78;6312181;22;20019;-92
2023/04/10 21:23:49;;;;;;;11.85;6.20;;;;;;;5.44;66.06;99167.97;6311441;22;20106;-93
2023/04/10 21:26:17;;;;;;;8.18;5.32;;;;;;;5.45;65.59;99167.09;6311241;22;20456;-93
2023/04/10 21:28:43;;;;;;;12.05;6.03;;;;;;;5.62;66.25;99206.69;6311620;22;20023;-92
2023/04/10 21:31:09;;;;;;;11.85;6.25;;;;;;;5.52;65.00;99178.53;6310422;22;20023;-95
2023/04/10 21:33:35;;;;;;;15.35;6.50;;;;;;;5.59;65.47;99182.91;6310773;22;20003;-94
2023/04/10 21:36:03;;;;;;;12.02;5.95;;;;;;;5.42;65.64;99148.66;6311590;22;20029;-94
2023/04/10 21:38:29;;;;;;;12.77;5.90;;;;;;;5.55;65.39;99168.88;6310757;22;20337;-92
2023/04/10 21:40:56;;;;;;;10.35;6.03;;;;;;;5.81;63.88;99196.09;6309648;22;20030;-94
2023/04/10 21:43:22;;;;;;;9.45;5.07;;;;;;;6.34;60.14;99203.94;6311176;22;20033;-94
2023/04/10 21:45:48;;;;;;;8.73;4.85;;;;;;;6.83;57.63;99194.94;6310916;22;20019;-93
2023/04/10 21:48:14;;;;;;;9.57;5.22;;;;;;;7.36;55.52;99198.13;6311087;22;20022;-93
2023/04/10 21:50:40;;;;;;;9.30;5.20;;;;;;;7.25;55.11;99153.25;6310448;22;20019;-93
2023/04/10 21:53:09;;;;;;;8.70;4.55;;;;;;;7.38;55.23;99172.56;6311481;22;20069;-92
2023/04/10 21:55:35;;;;;;;;;;;;;;;7.62;54.64;99213.81;6311473;22;20026;-92
2023/04/10 21:58:01;;;;;;;9.52;5.05;;;;;;;7.52;54.89;99199.75;6310847;22;19914;-91
2023/04/10 22:00:27;;;;;;;11.13;5.35;;;;;;;7.40;55.90;99200.75;6309950;22;20046;-92
2023/04/10 22:02:53;;;;;;;9.15;5.20;;;;;;;7.18;56.12;99193.88;6311149;22;20023;-92
2023/04/10 22:05:19;;;;;;;9.80;5.18;;;;;;;7.09;56.14;99184.22;6311817;22;20023;-92
2023/04/10 22:07:45;;;;;;;19.60;9.48;;;;;;;7.07;56.51;99185.09;6311751;22;20015;-92
2023/04/10 22:10:12;;;;;;;21.05;11.68;;;;;;;7.14;56.36;99195.63;6311462;22;20073;-92
2023/04/10 22:12:38;;;;;;;18.88;9.60;;;;;;;7.12;56.03;99170.97;6310679;22;20011;-93
2023/04/10 22:15:06;;;;;;;11.52;6.45;;;;;;;7.23;55.17;99164.72;6310767;22;20027;-91
2023/04/10 22:17:35;;;;;;;9.23;5.10;;;;;;;7.30;54.48;99164.66;6310624;22;20015;-91
2023/04/10 22:20:01;;;;;;;9.43;5.20;;;;;;;7.38;54.76;99167.25;6309318;22;20045;-90
2023/04/10 22:22:27;;;;;;;9.90;6.18;;;;;;;7.26;55.66;99177.91;6310453;22;20024;-91
2023/04/10 22:24:53;;;;;;;9.00;5.07;;;;;;;7.31;55.53;99182.31;6311129;22;20019;-93
2023/04/10 22:27:20;;;;;;;7.80;4.63;;;;;;;7.42;54.93;99187.53;6310850;22;20106;-94
2023/04/10 22:29:46;;;;;;;10.05;5.07;;;;;;;7.43;54.84;99189.25;6310659;22;20027;-93
2023/04/10 22:32:12;;;;;;;10.32;4.90;;;;;;;7.12;56.74;99167.44;6309723;22;20106;-92
2023/04/10 22:34:38;;;;;;;10.15;4.78;;;;;;;6.78;58.95;99179.09;6310293;22;20023;-94
2023/04/10 22:37:04;;;;;;;9.55;5.18;;;;;;;6.67;58.70;99194.13;6310813;22;20019;-94
2023/04/10 22:39:30;;;;;;;8.00;4.95;;;;;;;6.54;59.14;99195.06;6310894;22;20030;-94
2023/04/10 22:41:56;;;;;;;11.38;4.93;;;;;;;6.25;60.48;99192.53;6311833;22;20027;-94
2023/04/10 22:44:23;;;;;;;9.20;4.72;;;;;;;5.98;61.47;99178.50;6314024;22;20033;-94
2023/04/10 22:46:49;;;;;;;7.57;4.88;;;;;;;5.92;63.39;99207.50;6311278;22;20015;-94
2023/04/10 22:49:15;;;;;;;9.30;5.18;;;;;;;5.79;65.19;99213.69;6311622;22;20122;-93
2023/04/10 22:51:44;;;;;;;10.63;5.43;;;;;;;5.34;67.91;99185.56;6312139;22;20008;-93
2023/04/10 22:54:10;;;;;;;10.63;5.05;;;;;;;5.18;67.63;99186.41;6311820;22;20011;-93
2023/04/10 22:56:36;;;;;;;9.35;5.20;;;;;;;5.20;67.65;99196.97;6312070;22;20066;-92
2023/04/10 22:59:02;;;;;;;10.93;5.25;;;;;;;5.07;68.10;99191.66;6309031;22;20023;-93
2023/04/10 23:01:30;;;;;;;9.95;4.93;;;;;;;5.46;66.45;99223.38;6311237;22;20026;-93